Time;durP1;ratioP1;P1;durP2;ratioP2;P2;SDS_P1;SDS_P2;PMS_P1;PMS_P2;Temp;Humidity;BMP_temperature;BMP_pressure;BME280_temperature;BME280_humidity;BME280_pressure;Samples;Min_cycle;Max_cycle;Signal;HPM_P1;HPM_P2
2022/10/21 00:00:33;;;;;;;33.00;18.85;;;;;;;;;;4939754;29;20486;-78
2022/10/21 00:03:20;;;;;;;31.45;17.77;;;;;;;;;;4945998;29;20047;-77
2022/10/21 00:06:06;;;;;;;30.15;17.73;;;;;;;;;;4939566;29;20059;-77
2022/10/21 00:08:52;;;;;;;31.52;18.33;;;;;;;;;;4939670;29;20039;-77
2022/10/21 00:11:38;;;;;;;40.08;19.02;;;;;;;;;;4938378;29;20060;-77
2022/10/21 00:14:23;;;;;;;33.42;17.73;;;;;;;;;;4939356;29;20047;-77
2022/10/21 00:17:09;;;;;;;32.38;17.80;;;;;;;;;;4939170;29;20521;-77
2022/10/21 00:19:54;;;;;;;29.30;17.30;;;;;;;;;;4945801;29;20035;-77
2022/10/21 00:22:43;;;;;;;30.50;17.52;;;;;;;;;;4945822;29;20040;-77
2022/10/21 00:25:29;;;;;;;31.13;18.75;;;;;;;;;;4939151;29;20048;-77
2022/10/21 00:28:14;;;;;;;28.45;16.02;;;;;;;;;;4939445;29;20044;-77
2022/10/21 00:31:00;;;;;;;27.92;15.55;;;;;;;;;;4938960;29;20039;-77
2022/10/21 00:33:45;;;;;;;26.70;14.68;;;;;;;;;;4945529;29;20059;-76
2022/10/21 00:36:34;;;;;;;24.52;14.60;;;;;;;;;;4938861;29;20047;-77
2022/10/21 00:39:19;;;;;;;24.67;14.13;;;;;;;;;;4945104;29;20493;-77
2022/10/21 00:42:11;;;;;;;21.83;12.52;;;;;;;;;;4945301;29;20106;-76
2022/10/21 00:45:04;;;;;;;25.15;13.35;;;;;;;;;;4945060;29;20482;-78
2022/10/21 00:48:03;;;;;;;27.13;13.60;;;;;;;;;;4945389;29;20036;-77
2022/10/21 00:51:19;;;;;;;25.42;13.30;;;;;;;;;;4941859;29;20052;-77
2022/10/21 00:54:04;;;;;;;;;;;;;;;;;;4932277;29;20056;-76
2022/10/21 00:56:51;;;;;;;26.58;13.13;;;;;;;;;;4938589;29;20370;-76
2022/10/21 00:59:45;;;;;;;23.77;13.88;;;;;;;;;;4939025;29;20040;-76
2022/10/21 01:02:34;;;;;;;29.58;16.15;;;;;;;;;;4925255;29;20040;-78
2022/10/21 01:05:20;;;;;;;29.33;16.90;;;;;;;;;;4944918;29;20048;-76
2022/10/21 01:08:05;;;;;;;34.20;16.35;;;;;;;;;;4944905;29;20051;-76
2022/10/21 01:10:52;;;;;;;27.40;14.40;;;;;;;;;;4944845;29;20044;-76
2022/10/21 01:14:05;;;;;;;25.73;14.70;;;;;;;;;;4938254;29;20039;-78
2022/10/21 01:17:13;;;;;;;34.70;15.55;;;;;;;;;;4938516;29;20051;-78
2022/10/21 01:20:22;;;;;;;45.20;18.67;;;;;;;;;;4938053;29;20048;-77
2022/10/21 01:23:55;;;;;;;44.75;19.58;;;;;;;;;;4938418;29;20063;-77
2022/10/21 01:26:55;;;;;;;45.53;20.10;;;;;;;;;;4867557;29;20035;-77
2022/10/21 01:30:13;;;;;;;36.42;17.63;;;;;;;;;;4938450;29;20055;-77
2022/10/21 01:33:10;;;;;;;30.80;17.02;;;;;;;;;;4938060;29;20043;-78
2022/10/21 01:36:24;;;;;;;33.42;18.40;;;;;;;;;;4938092;29;20055;-76
2022/10/21 01:39:22;;;;;;;35.38;16.70;;;;;;;;;;4938124;29;20474;-76
2022/10/21 01:42:13;;;;;;;29.38;16.50;;;;;;;;;;4937933;29;20059;-76
2022/10/21 01:45:29;;;;;;;41.78;19.70;;;;;;;;;;4937938;29;20044;-76
2022/10/21 01:48:22;;;;;;;38.42;18.00;;;;;;;;;;4937783;29;20043;-76
2022/10/21 01:51:08;;;;;;;33.88;18.42;;;;;;;;;;4937221;29;20489;-76
2022/10/21 01:54:00;;;;;;;29.60;16.83;;;;;;;;;;4944234;29;20469;-76
2022/10/21 01:56:49;;;;;;;29.73;16.23;;;;;;;;;;4936159;29;20050;-76
2022/10/21 01:59:36;;;;;;;28.80;16.15;;;;;;;;;;4937528;29;20044;-76
2022/10/21 02:02:26;;;;;;;33.83;16.38;;;;;;;;;;4937566;29;20044;-76
2022/10/21 02:05:21;;;;;;;28.10;15.40;;;;;;;;;;4943984;29;20040;-76
2022/10/21 02:08:06;;;;;;;27.33;14.57;;;;;;;;;;4937600;29;20039;-76
2022/10/21 02:10:55;;;;;;;25.83;13.57;;;;;;;;;;4943719;29;20048;-76
2022/10/21 02:13:43;;;;;;;21.85;12.98;;;;;;;;;;4937497;29;20043;-78
2022/10/21 02:16:36;;;;;;;21.88;12.85;;;;;;;;;;4943382;29;20043;-78
2022/10/21 02:19:21;;;;;;;25.38;13.63;;;;;;;;;;4937373;29;20044;-78
2022/10/21 02:22:10;;;;;;;28.90;13.63;;;;;;;;;;4937094;29;20362;-77
2022/10/21 02:25:28;;;;;;;23.13;13.02;;;;;;;;;;4937071;29;20066;-77
2022/10/21 02:28:13;;;;;;;23.58;12.68;;;;;;;;;;4943463;29;20039;-77
2022/10/21 02:31:09;;;;;;;23.48;13.20;;;;;;;;;;4936873;29;20043;-77
2022/10/21 02:34:12;;;;;;;19.35;12.10;;;;;;;;;;4937190;29;20055;-77
2022/10/21 02:37:24;;;;;;;15.88;10.18;;;;;;;;;;4936736;29;20047;-76
2022/10/21 02:40:22;;;;;;;17.15;9.90;;;;;;;;;;4936801;29;20047;-76
2022/10/21 02:43:38;;;;;;;18.95;10.63;;;;;;;;;;4943393;29;20039;-75
2022/10/21 02:46:24;;;;;;;18.23;10.18;;;;;;;;;;4936767;29;20047;-78
2022/10/21 02:49:09;;;;;;;19.98;11.10;;;;;;;;;;4936709;29;20043;-77
2022/10/21 02:51:55;;;;;;;19.85;10.75;;;;;;;;;;4936148;29;20043;-77
2022/10/21 02:54:40;;;;;;;23.27;11.15;;;;;;;;;;4936582;29;20059;-77
2022/10/21 02:57:26;;;;;;;20.42;11.43;;;;;;;;;;4936621;29;20048;-77
2022/10/21 03:00:12;;;;;;;22.35;12.73;;;;;;;;;;4936893;29;20508;-77
2022/10/21 03:02:58;;;;;;;22.58;12.80;;;;;;;;;;4935450;29;20040;-77
2022/10/21 03:05:43;;;;;;;23.08;12.77;;;;;;;;;;4936334;29;20047;-77
2022/10/21 03:08:28;;;;;;;27.60;14.05;;;;;;;;;;4936711;29;20036;-77
2022/10/21 03:11:13;;;;;;;24.98;13.32;;;;;;;;;;4936369;29;20043;-77
2022/10/21 03:13:59;;;;;;;24.42;13.65;;;;;;;;;;4938729;29;20047;-76
2022/10/21 03:16:45;;;;;;;22.98;14.60;;;;;;;;;;4940100;29;20051;-76
2022/10/21 03:19:31;;;;;;;23.30;13.80;;;;;;;;;;4936180;29;20044;-77
2022/10/21 03:22:16;;;;;;;21.30;13.13;;;;;;;;;;4936217;29;20051;-77
2022/10/21 03:25:02;;;;;;;28.15;14.13;;;;;;;;;;4936529;29;20040;-77
2022/10/21 03:27:49;;;;;;;27.17;13.13;;;;;;;;;;4935278;29;20039;-77
2022/10/21 03:30:35;;;;;;;25.20;13.38;;;;;;;;;;4936227;29;20043;-77
2022/10/21 03:33:20;;;;;;;27.02;13.60;;;;;;;;;;4936270;29;20047;-77
2022/10/21 03:36:06;;;;;;;25.33;15.65;;;;;;;;;;4936205;29;20481;-77
2022/10/21 03:38:52;;;;;;;34.00;17.05;;;;;;;;;;4936119;29;20040;-77
2022/10/21 03:41:37;;;;;;;24.90;14.45;;;;;;;;;;4935033;29;20052;-77
2022/10/21 03:44:23;;;;;;;24.92;14.45;;;;;;;;;;4936369;29;20059;-77
2022/10/21 03:47:08;;;;;;;32.05;15.93;;;;;;;;;;4936139;29;20048;-77
2022/10/21 03:49:56;;;;;;;22.83;12.27;;;;;;;;;;4936186;29;20043;-77
2022/10/21 03:52:42;;;;;;;17.33;10.77;;;;;;;;;;4936260;29;20039;-77
2022/10/21 03:55:27;;;;;;;18.35;11.13;;;;;;;;;;4935963;29;20051;-77
2022/10/21 03:58:12;;;;;;;17.80;10.50;;;;;;;;;;4935747;29;20044;-77
2022/10/21 04:00:58;;;;;;;23.10;10.48;;;;;;;;;;4935820;29;20048;-76
2022/10/21 04:03:44;;;;;;;23.58;12.38;;;;;;;;;;4936131;29;20048;-77
2022/10/21 04:06:29;;;;;;;20.75;12.05;;;;;;;;;;4935920;29;20056;-76
2022/10/21 04:09:15;;;;;;;26.77;13.52;;;;;;;;;;4935762;29;20036;-77
2022/10/21 04:12:01;;;;;;;28.63;14.32;;;;;;;;;;4935822;29;20043;-78
2022/10/21 04:14:46;;;;;;;53.17;16.65;;;;;;;;;;4935607;29;20047;-77
2022/10/21 04:17:32;;;;;;;36.38;17.63;;;;;;;;;;4935752;29;20048;-76
2022/10/21 04:20:17;;;;;;;43.25;17.27;;;;;;;;;;4935571;29;20043;-77
2022/10/21 04:23:03;;;;;;;38.92;16.90;;;;;;;;;;4935575;29;20494;-77
2022/10/21 04:25:48;;;;;;;41.47;17.30;;;;;;;;;;4943327;29;20496;-77
2022/10/21 04:28:34;;;;;;;50.72;18.85;;;;;;;;;;4938925;29;20044;-77
2022/10/21 04:31:20;;;;;;;44.08;17.30;;;;;;;;;;4945143;29;20490;-78
2022/10/21 04:34:05;;;;;;;41.45;19.33;;;;;;;;;;4938999;29;20397;-77
2022/10/21 04:36:51;;;;;;;36.47;17.80;;;;;;;;;;4938820;29;20048;-76
2022/10/21 04:39:38;;;;;;;37.67;17.95;;;;;;;;;;4938831;29;20489;-77
2022/10/21 04:42:23;;;;;;;50.85;20.85;;;;;;;;;;4938620;29;20047;-77
2022/10/21 04:45:09;;;;;;;48.35;17.80;;;;;;;;;;4938962;29;20048;-77
2022/10/21 04:47:54;;;;;;;57.25;21.17;;;;;;;;;;4938834;29;20048;-77
2022/10/21 04:50:40;;;;;;;45.17;20.30;;;;;;;;;;4938431;29;20051;-77
2022/10/21 04:53:25;;;;;;;45.30;19.77;;;;;;;;;;4945015;29;20398;-77
2022/10/21 04:56:11;;;;;;;40.30;18.15;;;;;;;;;;4938729;29;20052;-77
2022/10/21 04:58:56;;;;;;;40.13;16.80;;;;;;;;;;4938422;29;20048;-77
2022/10/21 05:01:42;;;;;;;37.70;14.55;;;;;;;;;;4938736;29;20047;-77
2022/10/21 05:04:28;;;;;;;34.65;15.48;;;;;;;;;;4938227;29;20047;-78
2022/10/21 05:07:13;;;;;;;35.13;16.58;;;;;;;;;;4938481;29;20044;-76
2022/10/21 05:09:59;;;;;;;45.22;18.30;;;;;;;;;;4945051;29;20063;-77
2022/10/21 05:12:45;;;;;;;39.08;16.55;;;;;;;;;;4938391;29;20048;-76
2022/10/21 05:15:32;;;;;;;51.10;19.80;;;;;;;;;;4938391;29;20482;-77
2022/10/21 05:18:18;;;;;;;42.75;18.83;;;;;;;;;;4938159;29;20048;-77
2022/10/21 05:21:03;;;;;;;42.63;17.20;;;;;;;;;;4938109;29;20040;-77
2022/10/21 05:23:49;;;;;;;44.78;15.35;;;;;;;;;;4937476;29;20052;-77
2022/10/21 05:26:34;;;;;;;21.48;12.27;;;;;;;;;;4936981;29;20044;-77
2022/10/21 05:29:20;;;;;;;30.60;14.50;;;;;;;;;;4936464;29;20051;-76
2022/10/21 05:32:05;;;;;;;46.95;15.15;;;;;;;;;;4936332;29;20051;-77
2022/10/21 05:34:51;;;;;;;35.15;15.90;;;;;;;;;;4943377;29;20055;-76
2022/10/21 05:37:37;;;;;;;36.10;14.68;;;;;;;;;;4937466;29;20051;-78
2022/10/21 05:40:23;;;;;;;29.10;15.98;;;;;;;;;;4937848;29;20422;-76
2022/10/21 05:43:08;;;;;;;32.47;15.30;;;;;;;;;;4938032;29;20040;-76
2022/10/21 05:45:52;;;;;;;32.55;15.15;;;;;;;;;;4944184;29;20043;-76
2022/10/21 05:48:38;;;;;;;20.30;12.23;;;;;;;;;;4944502;29;20470;-76
2022/10/21 05:51:25;;;;;;;48.58;13.55;;;;;;;;;;4937269;29;20055;-76
2022/10/21 05:54:10;;;;;;;29.73;14.38;;;;;;;;;;4937704;29;20043;-76
2022/10/21 05:56:56;;;;;;;25.05;16.08;;;;;;;;;;4937619;29;20040;-77
2022/10/21 05:59:41;;;;;;;21.25;11.50;;;;;;;;;;4943599;29;20043;-78
2022/10/21 06:02:27;;;;;;;28.05;15.52;;;;;;;;;;4937491;29;20055;-76
2022/10/21 06:05:13;;;;;;;36.60;17.10;;;;;;;;;;4937395;29;20048;-76
2022/10/21 06:07:58;;;;;;;47.53;19.27;;;;;;;;;;4937247;29;20035;-76
2022/10/21 06:10:44;;;;;;;30.63;14.52;;;;;;;;;;4937750;29;20047;-76
2022/10/21 06:13:30;;;;;;;39.05;15.63;;;;;;;;;;4937168;29;20039;-79
2022/10/21 06:16:16;;;;;;;37.10;17.35;;;;;;;;;;4937247;29;20413;-79
2022/10/21 06:19:02;;;;;;;41.92;19.65;;;;;;;;;;4936964;29;20043;-78
2022/10/21 06:21:48;;;;;;;37.63;17.58;;;;;;;;;;4937115;29;20048;-78
2022/10/21 06:24:34;;;;;;;40.13;20.38;;;;;;;;;;4943608;29;20047;-76
2022/10/21 06:27:19;;;;;;;35.15;18.70;;;;;;;;;;4937286;29;20044;-76
2022/10/21 06:30:06;;;;;;;38.08;19.38;;;;;;;;;;4943529;29;20043;-79
2022/10/21 06:32:50;;;;;;;54.95;18.70;;;;;;;;;;4943794;29;20044;-77
2022/10/21 06:35:35;;;;;;;53.80;21.98;;;;;;;;;;4943744;29;20048;-75
2022/10/21 06:38:21;;;;;;;65.05;20.25;;;;;;;;;;4943669;29;20044;-76
2022/10/21 06:41:10;;;;;;;100.03;21.25;;;;;;;;;;4937675;29;20047;-77
2022/10/21 06:43:56;;;;;;;46.85;21.50;;;;;;;;;;4937379;29;20039;-78
2022/10/21 06:46:41;;;;;;;60.05;22.02;;;;;;;;;;4937692;29;20052;-77
2022/10/21 06:49:26;;;;;;;80.22;20.73;;;;;;;;;;4937426;29;20044;-77
2022/10/21 06:52:11;;;;;;;71.45;21.95;;;;;;;;;;4936273;29;20047;-76
2022/10/21 06:54:57;;;;;;;54.28;22.02;;;;;;;;;;4936728;29;20059;-76
2022/10/21 06:57:43;;;;;;;57.95;23.40;;;;;;;;;;4936521;29;20039;-76
2022/10/21 07:00:28;;;;;;;60.70;24.92;;;;;;;;;;4942930;29;20497;-76
2022/10/21 07:03:14;;;;;;;76.05;27.42;;;;;;;;;;4942721;29;20059;-76
2022/10/21 07:06:00;;;;;;;56.85;28.08;;;;;;;;;;4936578;29;20051;-76
2022/10/21 07:08:45;;;;;;;67.78;31.02;;;;;;;;;;4936435;29;20044;-78
2022/10/21 07:11:31;;;;;;;67.22;31.77;;;;;;;;;;4936322;29;20039;-77
2022/10/21 07:14:16;;;;;;;53.25;28.10;;;;;;;;;;4942968;29;20043;-79
2022/10/21 07:17:03;;;;;;;63.03;29.08;;;;;;;;;;4937862;29;20043;-79
2022/10/21 07:19:49;;;;;;;68.22;29.55;;;;;;;;;;4942736;29;20495;-80
2022/10/21 07:22:34;;;;;;;63.85;29.55;;;;;;;;;;4942782;29;20043;-80
2022/10/21 07:25:19;;;;;;;60.88;29.48;;;;;;;;;;4928410;29;20051;-82
2022/10/21 07:28:04;;;;;;;74.95;34.60;;;;;;;;;;4936650;29;20040;-81
2022/10/21 07:30:50;;;;;;;77.63;34.60;;;;;;;;;;4936183;29;20044;-80
2022/10/21 07:33:35;;;;;;;66.50;32.88;;;;;;;;;;4936387;29;20051;-82
2022/10/21 07:36:23;;;;;;;75.75;34.33;;;;;;;;;;4936222;29;20052;-80
2022/10/21 07:39:13;;;;;;;77.03;32.42;;;;;;;;;;4935946;29;20497;-79
2022/10/21 07:41:58;;;;;;;78.13;35.10;;;;;;;;;;4921986;29;20043;-80
2022/10/21 07:44:43;;;;;;;89.95;38.47;;;;;;;;;;4936723;29;20051;-80
2022/10/21 07:47:28;;;;;;;81.60;36.30;;;;;;;;;;4936113;29;20052;-78
2022/10/21 07:50:15;;;;;;;84.78;36.35;;;;;;;;;;4935953;29;20047;-78
2022/10/21 07:53:01;;;;;;;69.88;33.60;;;;;;;;;;4936066;29;20047;-78
2022/10/21 07:55:46;;;;;;;68.40;29.40;;;;;;;;;;4935936;29;20043;-80
2022/10/21 07:58:32;;;;;;;64.05;29.60;;;;;;;;;;4935985;29;20035;-80
2022/10/21 08:01:18;;;;;;;68.65;30.70;;;;;;;;;;4938280;29;20039;-80
2022/10/21 08:04:04;;;;;;;54.80;29.38;;;;;;;;;;4940028;29;20044;-78
2022/10/21 08:06:49;;;;;;;55.60;28.20;;;;;;;;;;4945915;29;20040;-77
2022/10/21 08:09:35;;;;;;;94.90;52.22;;;;;;;;;;4939519;29;20477;-78
2022/10/21 08:12:22;;;;;;;45.45;23.48;;;;;;;;;;4939087;29;20397;-78
2022/10/21 08:15:08;;;;;;;70.65;29.95;;;;;;;;;;4939107;29;20489;-78
2022/10/21 08:17:54;;;;;;;57.28;28.00;;;;;;;;;;4939602;29;20043;-78
2022/10/21 08:20:42;;;;;;;65.75;30.85;;;;;;;;;;4939344;29;20043;-80
2022/10/21 08:23:27;;;;;;;66.47;32.67;;;;;;;;;;4939216;29;20043;-80
2022/10/21 08:26:14;;;;;;;97.35;43.42;;;;;;;;;;4939102;29;20405;-77
2022/10/21 08:29:02;;;;;;;71.18;36.72;;;;;;;;;;4939420;29;20039;-77
2022/10/21 08:31:47;;;;;;;65.25;28.85;;;;;;;;;;4939195;29;20048;-78
2022/10/21 08:34:33;;;;;;;52.85;29.15;;;;;;;;;;4938994;29;20051;-79
2022/10/21 08:37:19;;;;;;;53.60;30.33;;;;;;;;;;4938762;29;20048;-78
2022/10/21 08:40:05;;;;;;;42.63;24.02;;;;;;;;;;4938783;29;20048;-78
2022/10/21 08:42:51;;;;;;;38.20;22.65;;;;;;;;;;4945249;29;20051;-79
2022/10/21 08:45:42;;;;;;;39.22;22.45;;;;;;;;;;4938857;29;20051;-79
2022/10/21 08:48:34;;;;;;;42.38;23.17;;;;;;;;;;4938998;29;20047;-80
2022/10/21 08:51:30;;;;;;;41.15;22.80;;;;;;;;;;4938731;29;20048;-78
2022/10/21 08:54:23;;;;;;;38.33;24.48;;;;;;;;;;4939132;29;20039;-80
2022/10/21 08:57:12;;;;;;;37.90;23.20;;;;;;;;;;4939041;29;20047;-80
2022/10/21 08:59:57;;;;;;;33.30;20.00;;;;;;;;;;4938695;29;20048;-78
2022/10/21 09:03:01;;;;;;;38.58;20.77;;;;;;;;;;4938728;29;20052;-81
2022/10/21 09:06:06;;;;;;;36.00;19.90;;;;;;;;;;4945522;29;20534;-82
2022/10/21 09:08:57;;;;;;;39.45;22.65;;;;;;;;;;4939862;29;20047;-82
2022/10/21 09:12:04;;;;;;;38.35;23.85;;;;;;;;;;4937812;29;20065;-82
2022/10/21 09:15:13;;;;;;;41.83;25.30;;;;;;;;;;4934932;29;20052;-84
2022/10/21 09:18:23;;;;;;;38.45;21.25;;;;;;;;;;4943789;29;20039;-83
2022/10/21 09:21:15;;;;;;;36.88;21.92;;;;;;;;;;4939476;29;20048;-83
2022/10/21 09:24:38;;;;;;;35.05;21.02;;;;;;;;;;4943759;29;20040;-83
2022/10/21 09:27:24;;;;;;;33.78;20.52;;;;;;;;;;4938299;29;20393;-82
2022/10/21 09:30:16;;;;;;;34.70;19.42;;;;;;;;;;4938122;29;20040;-82
2022/10/21 09:33:01;;;;;;;34.50;20.45;;;;;;;;;;4926173;29;20052;-81
2022/10/21 09:36:02;;;;;;;31.02;20.40;;;;;;;;;;4937980;29;20048;-81
2022/10/21 09:38:55;;;;;;;36.55;19.92;;;;;;;;;;4939068;29;20051;-83
2022/10/21 09:41:48;;;;;;;30.98;18.02;;;;;;;;;;4939453;29;20039;-82
2022/10/21 09:44:34;;;;;;;23.27;14.48;;;;;;;;;;4938055;29;20051;-82
2022/10/21 09:47:22;;;;;;;29.02;18.23;;;;;;;;;;4938054;29;20047;-82
2022/10/21 09:50:15;;;;;;;27.00;15.63;;;;;;;;;;4937280;29;20044;-82
2022/10/21 09:53:13;;;;;;;28.60;16.60;;;;;;;;;;4944184;29;20131;-82
2022/10/21 09:56:30;;;;;;;36.42;20.83;;;;;;;;;;4937397;29;20048;-82
2022/10/21 09:59:18;;;;;;;28.52;16.33;;;;;;;;;;4930989;29;20040;-82
2022/10/21 10:02:13;;;;;;;30.42;17.45;;;;;;;;;;4937643;29;20047;-82
2022/10/21 10:04:58;;;;;;;25.88;15.40;;;;;;;;;;4937747;29;20055;-82
2022/10/21 10:07:43;;;;;;;25.58;14.35;;;;;;;;;;4923724;29;20055;-82
2022/10/21 10:10:31;;;;;;;26.40;16.05;;;;;;;;;;4937709;29;20043;-83
2022/10/21 10:13:19;;;;;;;23.65;14.15;;;;;;;;;;4937219;29;20051;-83
2022/10/21 10:16:29;;;;;;;31.67;16.50;;;;;;;;;;4943929;29;20047;-83
2022/10/21 10:19:15;;;;;;;24.50;14.43;;;;;;;;;;4944266;29;20055;-83
2022/10/21 10:22:12;;;;;;;28.33;16.98;;;;;;;;;;4944837;29;20047;-82
2022/10/21 10:25:25;;;;;;;24.45;15.43;;;;;;;;;;4937066;29;20055;-83
2022/10/21 10:28:10;;;;;;;31.13;16.40;;;;;;;;;;4936826;29;20047;-82
2022/10/21 10:30:56;;;;;;;24.58;14.77;;;;;;;;;;4937398;29;20039;-84
2022/10/21 10:33:57;;;;;;;25.80;13.40;;;;;;;;;;4936922;29;20048;-83
2022/10/21 10:36:43;;;;;;;21.63;12.68;;;;;;;;;;4936916;29;20044;-82
2022/10/21 10:39:32;;;;;;;20.23;12.02;;;;;;;;;;4936734;29;20486;-83
2022/10/21 10:42:40;;;;;;;22.45;13.25;;;;;;;;;;4943165;29;20043;-83
2022/10/21 10:45:26;;;;;;;21.92;11.93;;;;;;;;;;4937047;29;20044;-83
2022/10/21 10:48:21;;;;;;;15.55;9.70;;;;;;;;;;4936673;29;20047;-83
2022/10/21 10:51:22;;;;;;;16.25;9.63;;;;;;;;;;4936122;29;20047;-82
2022/10/21 10:54:19;;;;;;;17.23;10.07;;;;;;;;;;4943273;29;20055;-82
2022/10/21 10:57:17;;;;;;;22.08;10.15;;;;;;;;;;4941831;29;20039;-80
2022/10/21 11:00:19;;;;;;;13.57;9.10;;;;;;;;;;4936881;29;20039;-82
2022/10/21 11:03:09;;;;;;;16.35;9.57;;;;;;;;;;4937509;29;20048;-82
2022/10/21 11:06:05;;;;;;;16.80;9.65;;;;;;;;;;4936437;29;20110;-81
2022/10/21 11:08:57;;;;;;;12.65;9.25;;;;;;;;;;4936340;29;20035;-80
2022/10/21 11:11:45;;;;;;;13.38;10.35;;;;;;;;;;4936387;29;20043;-83
2022/10/21 11:14:30;;;;;;;17.10;9.02;;;;;;;;;;4941760;29;20036;-78
2022/10/21 11:17:19;;;;;;;20.48;7.60;;;;;;;;;;4936294;29;20052;-76
2022/10/21 11:20:14;;;;;;;15.45;7.95;;;;;;;;;;4936055;29;20048;-80
2022/10/21 11:23:18;;;;;;;13.60;8.18;;;;;;;;;;4935147;29;20481;-77
2022/10/21 11:26:17;;;;;;;13.02;7.78;;;;;;;;;;4936370;29;20036;-78
2022/10/21 11:29:13;;;;;;;15.68;8.05;;;;;;;;;;4936076;29;20043;-77
2022/10/21 11:32:01;;;;;;;11.85;8.00;;;;;;;;;;4936374;29;20043;-76
2022/10/21 11:34:57;;;;;;;13.35;7.32;;;;;;;;;;4936498;29;20474;-77
2022/10/21 11:37:56;;;;;;;17.73;8.02;;;;;;;;;;4940321;29;20040;-77
2022/10/21 11:40:53;;;;;;;13.90;7.72;;;;;;;;;;4939662;29;20055;-76
2022/10/21 11:44:18;;;;;;;11.25;7.07;;;;;;;;;;4939946;29;20051;-79
2022/10/21 11:47:12;;;;;;;11.20;6.57;;;;;;;;;;4939019;29;20047;-79
2022/10/21 11:50:44;;;;;;;12.10;7.25;;;;;;;;;;4939417;29;20040;-77
2022/10/21 11:54:06;;;;;;;13.07;8.10;;;;;;;;;;4918944;29;20398;-77
2022/10/21 11:57:02;;;;;;;11.45;7.32;;;;;;;;;;4920187;29;20040;-79
2022/10/21 12:00:06;;;;;;;13.48;7.15;;;;;;;;;;4919763;29;20066;-77
2022/10/21 12:03:01;;;;;;;16.87;7.97;;;;;;;;;;4926174;29;20039;-80
2022/10/21 12:06:13;;;;;;;15.80;7.18;;;;;;;;;;4926719;29;20410;-80
2022/10/21 12:09:09;;;;;;;15.48;6.90;;;;;;;;;;4920334;29;20051;-80
2022/10/21 12:12:08;;;;;;;12.48;6.90;;;;;;;;;;4926577;29;20052;-79
2022/10/21 12:15:01;;;;;;;16.42;7.10;;;;;;;;;;4920364;29;20394;-80
2022/10/21 12:17:48;;;;;;;11.55;7.75;;;;;;;;;;4920301;29;20454;-78
2022/10/21 12:20:33;;;;;;;12.48;7.22;;;;;;;;;;4919863;29;20406;-78
2022/10/21 12:23:25;;;;;;;16.65;6.90;;;;;;;;;;4920218;29;20044;-78
2022/10/21 12:26:19;;;;;;;17.25;6.32;;;;;;;;;;4919653;29;20036;-77
2022/10/21 12:29:36;;;;;;;11.50;6.60;;;;;;;;;;4919839;29;20394;-78
2022/10/21 12:32:38;;;;;;;12.00;6.68;;;;;;;;;;4919968;29;20036;-78
2022/10/21 12:35:45;;;;;;;12.93;6.28;;;;;;;;;;4920016;29;20060;-78
2022/10/21 12:38:50;;;;;;;13.60;6.43;;;;;;;;;;4920063;29;20048;-78
2022/10/21 12:41:38;;;;;;;12.65;8.32;;;;;;;;;;4920117;29;20394;-78
2022/10/21 12:44:27;;;;;;;21.10;8.88;;;;;;;;;;4919913;29;20040;-78
2022/10/21 12:47:28;;;;;;;11.75;6.00;;;;;;;;;;4919678;29;20048;-79
2022/10/21 12:50:28;;;;;;;10.50;6.00;;;;;;;;;;4920815;29;20052;-80
2022/10/21 12:53:35;;;;;;;9.95;6.07;;;;;;;;;;4938704;29;20043;-78
2022/10/21 12:56:32;;;;;;;11.50;5.78;;;;;;;;;;4938333;29;20514;-80
2022/10/21 12:59:42;;;;;;;9.15;5.95;;;;;;;;;;4938447;29;20044;-79
2022/10/21 13:02:27;;;;;;;10.57;5.45;;;;;;;;;;4938481;29;20454;-78
2022/10/21 13:05:35;;;;;;;12.38;6.18;;;;;;;;;;4938673;29;20043;-77
2022/10/21 13:08:23;;;;;;;11.85;6.53;;;;;;;;;;4944708;29;20047;-78
2022/10/21 13:11:09;;;;;;;15.57;8.65;;;;;;;;;;4938824;29;20052;-78
2022/10/21 13:14:16;;;;;;;10.50;6.28;;;;;;;;;;4938125;29;20048;-78
2022/10/21 13:17:48;;;;;;;10.95;6.03;;;;;;;;;;4938192;29;20044;-77
2022/10/21 13:20:37;;;;;;;14.85;7.65;;;;;;;;;;4915563;29;20048;-77
2022/10/21 13:23:31;;;;;;;14.50;6.90;;;;;;;;;;4939028;29;20048;-79
2022/10/21 13:26:23;;;;;;;16.00;7.30;;;;;;;;;;4938193;29;20374;-79
2022/10/21 13:29:09;;;;;;;12.30;6.07;;;;;;;;;;4938103;29;20051;-78
2022/10/21 13:32:13;;;;;;;11.40;5.95;;;;;;;;;;4938010;29;20040;-78
2022/10/21 13:35:09;;;;;;;9.63;6.32;;;;;;;;;;4937706;29;20073;-77
2022/10/21 13:38:02;;;;;;;10.90;6.40;;;;;;;;;;4938162;29;20051;-77
2022/10/21 13:40:55;;;;;;;15.05;6.22;;;;;;;;;;4943687;29;20052;-75
2022/10/21 13:43:50;;;;;;;17.35;6.97;;;;;;;;;;4937602;29;20393;-77
2022/10/21 13:46:39;;;;;;;11.95;6.80;;;;;;;;;;4937511;29;20047;-77
2022/10/21 13:49:27;;;;;;;16.25;7.82;;;;;;;;;;4943022;29;20043;-77
2022/10/21 13:52:13;;;;;;;14.90;9.45;;;;;;;;;;4937373;29;20047;-76
2022/10/21 13:55:00;;;;;;;18.58;9.20;;;;;;;;;;4943867;29;20043;-76
2022/10/21 13:57:47;;;;;;;22.55;9.85;;;;;;;;;;4943373;29;20048;-75
2022/10/21 14:00:33;;;;;;;23.38;10.55;;;;;;;;;;4937198;29;20083;-75
2022/10/21 14:03:22;;;;;;;21.80;12.55;;;;;;;;;;4937891;29;20051;-76
2022/10/21 14:06:09;;;;;;;29.42;13.07;;;;;;;;;;4938424;29;20040;-77
2022/10/21 14:08:54;;;;;;;16.30;9.27;;;;;;;;;;4937976;29;20047;-75
2022/10/21 14:11:47;;;;;;;18.63;11.02;;;;;;;;;;4943572;29;20044;-75
2022/10/21 14:14:36;;;;;;;26.77;9.50;;;;;;;;;;4937482;29;20043;-77
2022/10/21 14:17:27;;;;;;;21.35;10.30;;;;;;;;;;4943638;29;20490;-76
2022/10/21 14:20:24;;;;;;;19.00;10.90;;;;;;;;;;4943636;29;20040;-77
2022/10/21 14:23:17;;;;;;;19.75;9.63;;;;;;;;;;4937148;29;20047;-76
2022/10/21 14:26:06;;;;;;;18.20;9.93;;;;;;;;;;4943973;29;20055;-76
2022/10/21 14:28:51;;;;;;;13.50;8.82;;;;;;;;;;4936875;29;20051;-76
2022/10/21 14:31:37;;;;;;;15.77;9.57;;;;;;;;;;4937016;29;20051;-76
2022/10/21 14:34:24;;;;;;;18.45;8.52;;;;;;;;;;4937040;29;20044;-77
2022/10/21 14:37:09;;;;;;;15.30;7.70;;;;;;;;;;4936755;29;20485;-77
2022/10/21 14:40:18;;;;;;;20.17;7.28;;;;;;;;;;4937036;29;20044;-77
2022/10/21 14:43:10;;;;;;;12.73;7.30;;;;;;;;;;4936692;29;20047;-76
2022/10/21 14:45:55;;;;;;;16.50;7.75;;;;;;;;;;4936730;29;20048;-78
2022/10/21 14:48:54;;;;;;;22.35;9.00;;;;;;;;;;4943041;29;20055;-77
2022/10/21 14:51:39;;;;;;;12.07;7.32;;;;;;;;;;4936243;29;20059;-75
2022/10/21 14:54:38;;;;;;;22.27;8.85;;;;;;;;;;4936452;29;20052;-76
2022/10/21 14:57:33;;;;;;;16.35;7.75;;;;;;;;;;4936265;29;20052;-78
2022/10/21 15:00:23;;;;;;;17.02;8.27;;;;;;;;;;4936056;29;20035;-78
2022/10/21 15:03:11;;;;;;;12.90;7.57;;;;;;;;;;4936515;29;20408;-78
2022/10/21 15:06:25;;;;;;;15.98;7.20;;;;;;;;;;4936271;29;20047;-76
2022/10/21 15:09:10;;;;;;;18.30;10.13;;;;;;;;;;4936386;29;20047;-77
2022/10/21 15:12:18;;;;;;;31.88;19.77;;;;;;;;;;4935917;29;20055;-77
2022/10/21 15:15:24;;;;;;;24.27;11.98;;;;;;;;;;4936076;29;20040;-77
2022/10/21 15:18:47;;;;;;;21.17;12.55;;;;;;;;;;4935173;29;20047;-78
2022/10/21 15:21:44;;;;;;;27.25;14.05;;;;;;;;;;4846790;29;20049;-77
2022/10/21 15:24:42;;;;;;;24.02;14.27;;;;;;;;;;4936285;29;20405;-77
2022/10/21 15:27:34;;;;;;;26.75;13.65;;;;;;;;;;4936330;29;20048;-77
2022/10/21 15:30:21;;;;;;;28.02;14.63;;;;;;;;;;4936536;29;20390;-76
2022/10/21 15:33:11;;;;;;;35.60;18.58;;;;;;;;;;4936231;29;20139;-78
2022/10/21 15:36:07;;;;;;;31.02;16.98;;;;;;;;;;4936454;29;20043;-78
2022/10/21 15:38:54;;;;;;;53.20;30.35;;;;;;;;;;4935955;29;20040;-77
2022/10/21 15:41:40;;;;;;;113.57;55.83;;;;;;;;;;4935926;29;20401;-76
2022/10/21 15:44:31;;;;;;;41.38;26.38;;;;;;;;;;4936146;29;20047;-77
2022/10/21 15:47:16;;;;;;;31.58;18.25;;;;;;;;;;4935884;29;20481;-77
2022/10/21 15:50:12;;;;;;;24.48;14.07;;;;;;;;;;4935987;29;20043;-77
2022/10/21 15:52:57;;;;;;;21.85;12.30;;;;;;;;;;4936042;29;20405;-78
2022/10/21 15:55:43;;;;;;;23.73;13.88;;;;;;;;;;4936148;29;20047;-77
2022/10/21 15:58:30;;;;;;;28.55;16.52;;;;;;;;;;4935906;29;20048;-77
2022/10/21 16:01:16;;;;;;;33.60;19.17;;;;;;;;;;4941816;29;20036;-77
2022/10/21 16:04:03;;;;;;;40.92;22.00;;;;;;;;;;4935533;29;20059;-78
2022/10/21 16:06:49;;;;;;;79.20;38.33;;;;;;;;;;4935702;29;20048;-77
2022/10/21 16:09:34;;;;;;;82.60;37.92;;;;;;;;;;4935759;29;20111;-78
2022/10/21 16:12:20;;;;;;;56.40;30.23;;;;;;;;;;4935621;29;20051;-77
2022/10/21 16:15:06;;;;;;;54.47;29.75;;;;;;;;;;4935635;29;20047;-78
2022/10/21 16:17:55;;;;;;;52.08;30.35;;;;;;;;;;4933364;29;20043;-76
2022/10/21 16:20:41;;;;;;;48.35;29.52;;;;;;;;;;4933830;29;20473;-76
2022/10/21 16:23:27;;;;;;;62.17;36.97;;;;;;;;;;4938058;29;20039;-78
2022/10/21 16:26:18;;;;;;;63.33;38.78;;;;;;;;;;4944949;29;20055;-78
2022/10/21 16:29:04;;;;;;;108.70;64.50;;;;;;;;;;4938735;29;20043;-76
2022/10/21 16:31:50;;;;;;;122.70;70.00;;;;;;;;;;4945183;29;20051;-77
2022/10/21 16:34:36;;;;;;;70.05;37.67;;;;;;;;;;4944415;29;20039;-77
2022/10/21 16:37:26;;;;;;;82.95;42.15;;;;;;;;;;4939233;29;20047;-77
2022/10/21 16:40:17;;;;;;;120.90;61.90;;;;;;;;;;4945289;29;20040;-78